sensor_id;sensor_type;location;lat;lon;timestamp;pressure;altitude;pressure_sealevel;temperature;humidity
38289;BME280;24092;53.370;-6.588;2022-08-19T00:00:54;100473.94;;;8.89;100.00
38289;BME280;24092;53.370;-6.588;2022-08-19T00:03:21;100470.61;;;9.07;100.00
38289;BME280;24092;53.370;-6.588;2022-08-19T00:05:48;100473.12;;;8.69;100.00
38289;BME280;24092;53.370;-6.588;2022-08-19T00:08:15;100469.69;;;8.98;100.00
38289;BME280;24092;53.370;-6.588;2022-08-19T00:10:42;100473.87;;;8.86;100.00
38289;BME280;24092;53.370;-6.588;2022-08-19T00:13:09;100475.95;;;8.85;100.00
38289;BME280;24092;53.370;-6.588;2022-08-19T00:15:36;100484.27;;;8.77;100.00
38289;BME280;24092;53.370;-6.588;2022-08-19T00:18:03;100487.11;;;8.13;100.00
38289;BME280;24092;53.370;-6.588;2022-08-19T00:20:31;100488.86;;;7.95;100.00
38289;BME280;24092;53.370;-6.588;2022-08-19T00:22:58;100488.06;;;7.78;100.00
38289;BME280;24092;53.370;-6.588;2022-08-19T00:25:25;100486.82;;;8.08;100.00
38289;BME280;24092;53.370;-6.588;2022-08-19T00:27:52;100491.36;;;8.12;100.00
38289;BME280;24092;53.370;-6.588;2022-08-19T00:30:19;100496.14;;;8.18;100.00
38289;BME280;24092;53.370;-6.588;2022-08-19T00:32:46;100495.67;;;8.26;100.00
38289;BME280;24092;53.370;-6.588;2022-08-19T00:35:13;100500.40;;;7.98;100.00
38289;BME280;24092;53.370;-6.588;2022-08-19T00:37:40;100500.03;;;8.05;100.00
38289;BME280;24092;53.370;-6.588;2022-08-19T00:40:09;100500.47;;;8.04;100.00
38289;BME280;24092;53.370;-6.588;2022-08-19T00:42:38;100502.80;;;7.69;100.00
38289;BME280;24092;53.370;-6.588;2022-08-19T00:45:11;100505.53;;;8.02;100.00
38289;BME280;24092;53.370;-6.588;2022-08-19T00:47:39;100507.50;;;8.29;100.00
38289;BME280;24092;53.370;-6.588;2022-08-19T00:50:08;100507.95;;;8.23;100.00
38289;BME280;24092;53.370;-6.588;2022-08-19T00:52:39;100509.95;;;8.34;100.00
38289;BME280;24092;53.370;-6.588;2022-08-19T00:55:08;100507.92;;;7.93;100.00
38289;BME280;24092;53.370;-6.588;2022-08-19T00:57:38;100507.89;;;8.19;100.00
38289;BME280;24092;53.370;-6.588;2022-08-19T01:00:10;100509.68;;;8.18;100.00
38289;BME280;24092;53.370;-6.588;2022-08-19T01:02:39;100506.66;;;8.31;100.00
38289;BME280;24092;53.370;-6.588;2022-08-19T01:05:09;100506.57;;;8.70;100.00
38289;BME280;24092;53.370;-6.588;2022-08-19T01:07:39;100507.06;;;8.15;100.00
38289;BME280;24092;53.370;-6.588;2022-08-19T01:10:09;100501.04;;;8.72;100.00
38289;BME280;24092;53.370;-6.588;2022-08-19T01:12:36;100500.26;;;8.74;100.00
38289;BME280;24092;53.370;-6.588;2022-08-19T01:15:07;100493.69;;;8.38;100.00
38289;BME280;24092;53.370;-6.588;2022-08-19T01:17:36;100494.98;;;8.90;100.00
38289;BME280;24092;53.370;-6.588;2022-08-19T01:20:07;100491.36;;;8.79;100.00
38289;BME280;24092;53.370;-6.588;2022-08-19T01:22:38;100496.41;;;8.39;100.00
38289;BME280;24092;53.370;-6.588;2022-08-19T01:25:09;100496.75;;;9.24;100.00
38289;BME280;24092;53.370;-6.588;2022-08-19T01:27:39;100500.22;;;8.49;100.00
38289;BME280;24092;53.370;-6.588;2022-08-19T01:30:09;100499.12;;;8.38;100.00
38289;BME280;24092;53.370;-6.588;2022-08-19T01:32:36;100505.82;;;7.93;100.00
38289;BME280;24092;53.370;-6.588;2022-08-19T01:35:05;100506.80;;;8.22;100.00
38289;BME280;24092;53.370;-6.588;2022-08-19T01:37:42;100505.30;;;8.24;100.00
38289;BME280;24092;53.370;-6.588;2022-08-19T01:40:10;100511.14;;;8.06;100.00
38289;BME280;24092;53.370;-6.588;2022-08-19T01:42:37;100515.04;;;8.33;100.00
38289;BME280;24092;53.370;-6.588;2022-08-19T01:45:05;100512.31;;;7.77;100.00
38289;BME280;24092;53.370;-6.588;2022-08-19T01:47:33;100521.29;;;8.08;100.00
38289;BME280;24092;53.370;-6.588;2022-08-19T01:50:00;100521.93;;;7.84;100.00
38289;BME280;24092;53.370;-6.588;2022-08-19T01:52:27;100521.69;;;7.95;100.00
38289;BME280;24092;53.370;-6.588;2022-08-19T01:54:54;100520.11;;;7.75;100.00
38289;BME280;24092;53.370;-6.588;2022-08-19T01:57:21;100518.61;;;7.82;100.00
38289;BME280;24092;53.370;-6.588;2022-08-19T01:59:48;100515.70;;;8.16;100.00
38289;BME280;24092;53.370;-6.588;2022-08-19T02:02:16;100513.93;;;7.68;100.00
38289;BME280;24092;53.370;-6.588;2022-08-19T02:04:43;100512.31;;;7.84;100.00
38289;BME280;24092;53.370;-6.588;2022-08-19T02:07:10;100515.27;;;8.66;100.00
38289;BME280;24092;53.370;-6.588;2022-08-19T02:09:37;100516.20;;;8.31;100.00
38289;BME280;24092;53.370;-6.588;2022-08-19T02:12:07;100515.89;;;7.90;100.00
38289;BME280;24092;53.370;-6.588;2022-08-19T02:14:34;100515.39;;;8.10;100.00
38289;BME280;24092;53.370;-6.588;2022-08-19T02:17:03;100519.39;;;7.63;100.00
38289;BME280;24092;53.370;-6.588;2022-08-19T02:19:30;100519.72;;;7.61;100.00
38289;BME280;24092;53.370;-6.588;2022-08-19T02:21:57;100519.40;;;7.81;100.00
38289;BME280;24092;53.370;-6.588;2022-08-19T02:24:24;100525.42;;;8.13;100.00
38289;BME280;24092;53.370;-6.588;2022-08-19T02:26:51;100525.28;;;8.20;100.00
38289;BME280;24092;53.370;-6.588;2022-08-19T02:29:18;100525.50;;;8.32;100.00
38289;BME280;24092;53.370;-6.588;2022-08-19T02:31:45;100521.41;;;8.03;100.00
38289;BME280;24092;53.370;-6.588;2022-08-19T02:34:12;100516.69;;;8.34;100.00
38289;BME280;24092;53.370;-6.588;2022-08-19T02:36:39;100513.94;;;8.42;100.00
38289;BME280;24092;53.370;-6.588;2022-08-19T02:39:05;100510.03;;;8.48;100.00
38289;BME280;24092;53.370;-6.588;2022-08-19T02:41:34;100510.40;;;8.43;100.00
38289;BME280;24092;53.370;-6.588;2022-08-19T02:44:03;100510.70;;;8.55;100.00
38289;BME280;24092;53.370;-6.588;2022-08-19T02:46:31;100501.82;;;8.81;100.00
38289;BME280;24092;53.370;-6.588;2022-08-19T02:49:02;100507.07;;;8.85;100.00
38289;BME280;24092;53.370;-6.588;2022-08-19T02:51:32;100503.02;;;8.45;100.00
38289;BME280;24092;53.370;-6.588;2022-08-19T02:54:00;100505.48;;;8.01;100.00
38289;BME280;24092;53.370;-6.588;2022-08-19T02:56:28;100511.21;;;8.15;100.00
38289;BME280;24092;53.370;-6.588;2022-08-19T02:58:55;100515.70;;;7.80;100.00
38289;BME280;24092;53.370;-6.588;2022-08-19T03:01:25;100517.54;;;7.46;100.00
38289;BME280;24092;53.370;-6.588;2022-08-19T03:03:54;100514.04;;;7.69;100.00
38289;BME280;24092;53.370;-6.588;2022-08-19T03:06:21;100510.61;;;7.91;100.00
38289;BME280;24092;53.370;-6.588;2022-08-19T03:08:48;100511.62;;;7.67;100.00
38289;BME280;24092;53.370;-6.588;2022-08-19T03:11:17;100507.85;;;7.15;100.00
38289;BME280;24092;53.370;-6.588;2022-08-19T03:13:44;100510.56;;;7.53;100.00
38289;BME280;24092;53.370;-6.588;2022-08-19T03:16:12;100512.82;;;7.33;100.00
38289;BME280;24092;53.370;-6.588;2022-08-19T03:18:40;100513.54;;;7.29;100.00
38289;BME280;24092;53.370;-6.588;2022-08-19T03:21:07;100516.12;;;7.09;100.00
38289;BME280;24092;53.370;-6.588;2022-08-19T03:23:35;100522.42;;;7.56;100.00
38289;BME280;24092;53.370;-6.588;2022-08-19T03:26:04;100527.88;;;7.25;100.00
38289;BME280;24092;53.370;-6.588;2022-08-19T03:28:32;100530.57;;;7.47;100.00
38289;BME280;24092;53.370;-6.588;2022-08-19T03:31:03;100529.29;;;7.40;100.00
38289;BME280;24092;53.370;-6.588;2022-08-19T03:33:32;100533.53;;;7.77;100.00
38289;BME280;24092;53.370;-6.588;2022-08-19T03:36:02;100534.59;;;7.64;100.00
38289;BME280;24092;53.370;-6.588;2022-08-19T03:38:30;100535.39;;;7.85;100.00
38289;BME280;24092;53.370;-6.588;2022-08-19T03:40:56;100535.83;;;7.44;100.00
38289;BME280;24092;53.370;-6.588;2022-08-19T03:43:23;100534.45;;;7.61;100.00
38289;BME280;24092;53.370;-6.588;2022-08-19T03:46:00;100535.25;;;7.46;100.00
38289;BME280;24092;53.370;-6.588;2022-08-19T03:48:28;100527.11;;;7.58;100.00
38289;BME280;24092;53.370;-6.588;2022-08-19T03:50:55;100532.01;;;7.71;100.00
38289;BME280;24092;53.370;-6.588;2022-08-19T03:53:22;100527.08;;;7.86;100.00
38289;BME280;24092;53.370;-6.588;2022-08-19T03:55:49;100527.85;;;8.21;100.00
38289;BME280;24092;53.370;-6.588;2022-08-19T03:58:16;100527.49;;;8.05;100.00
38289;BME280;24092;53.370;-6.588;2022-08-19T04:00:43;100525.53;;;7.31;100.00
38289;BME280;24092;53.370;-6.588;2022-08-19T04:03:10;100527.05;;;7.63;100.00
38289;BME280;24092;53.370;-6.588;2022-08-19T04:05:37;100528.36;;;7.42;100.00
38289;BME280;24092;53.370;-6.588;2022-08-19T04:08:04;100527.95;;;7.55;100.00
38289;BME280;24092;53.370;-6.588;2022-08-19T04:10:35;100524.88;;;7.56;100.00
38289;BME280;24092;53.370;-6.588;2022-08-19T04:13:03;100523.11;;;7.60;100.00
38289;BME280;24092;53.370;-6.588;2022-08-19T04:15:31;100523.92;;;7.20;100.00
38289;BME280;24092;53.370;-6.588;2022-08-19T04:17:58;100525.79;;;7.54;100.00
38289;BME280;24092;53.370;-6.588;2022-08-19T04:20:26;100526.53;;;7.32;100.00
38289;BME280;24092;53.370;-6.588;2022-08-19T04:22:53;100527.29;;;7.10;100.00
38289;BME280;24092;53.370;-6.588;2022-08-19T04:25:20;100531.15;;;7.52;100.00
38289;BME280;24092;53.370;-6.588;2022-08-19T04:27:47;100530.10;;;7.69;100.00
38289;BME280;24092;53.370;-6.588;2022-08-19T04:30:15;100526.73;;;7.30;100.00
38289;BME280;24092;53.370;-6.588;2022-08-19T04:32:42;100525.54;;;7.37;100.00
38289;BME280;24092;53.370;-6.588;2022-08-19T04:35:09;100523.21;;;7.47;100.00
38289;BME280;24092;53.370;-6.588;2022-08-19T04:37:36;100529.25;;;7.36;100.00
38289;BME280;24092;53.370;-6.588;2022-08-19T04:40:06;100527.99;;;6.97;100.00
38289;BME280;24092;53.370;-6.588;2022-08-19T04:42:33;100529.03;;;7.47;100.00
38289;BME280;24092;53.370;-6.588;2022-08-19T04:45:00;100532.90;;;7.32;100.00
38289;BME280;24092;53.370;-6.588;2022-08-19T04:47:27;100529.52;;;7.58;100.00
38289;BME280;24092;53.370;-6.588;2022-08-19T04:49:54;100530.96;;;7.35;100.00
38289;BME280;24092;53.370;-6.588;2022-08-19T04:52:21;100528.81;;;7.57;100.00
38289;BME280;24092;53.370;-6.588;2022-08-19T04:54:48;100522.33;;;7.25;100.00
38289;BME280;24092;53.370;-6.588;2022-08-19T04:57:15;100522.29;;;7.89;100.00
38289;BME280;24092;53.370;-6.588;2022-08-19T04:59:42;100520.39;;;7.85;100.00
38289;BME280;24092;53.370;-6.588;2022-08-19T05:02:09;100528.22;;;8.09;100.00
38289;BME280;24092;53.370;-6.588;2022-08-19T05:04:36;100531.37;;;7.24;100.00
38289;BME280;24092;53.370;-6.588;2022-08-19T05:07:04;100533.82;;;7.35;100.00
38289;BME280;24092;53.370;-6.588;2022-08-19T05:09:31;100541.42;;;6.81;100.00
38289;BME280;24092;53.370;-6.588;2022-08-19T05:11:58;100543.47;;;7.33;100.00
38289;BME280;24092;53.370;-6.588;2022-08-19T05:14:25;100547.30;;;7.00;100.00
38289;BME280;24092;53.370;-6.588;2022-08-19T05:16:52;100541.90;;;7.12;100.00
38289;BME280;24092;53.370;-6.588;2022-08-19T05:19:18;100545.09;;;7.52;100.00
38289;BME280;24092;53.370;-6.588;2022-08-19T05:21:46;100546.42;;;7.99;100.00
38289;BME280;24092;53.370;-6.588;2022-08-19T05:24:13;100545.78;;;7.32;100.00
38289;BME280;24092;53.370;-6.588;2022-08-19T05:26:43;100546.02;;;7.44;100.00
38289;BME280;24092;53.370;-6.588;2022-08-19T05:29:10;100540.43;;;6.80;100.00
38289;BME280;24092;53.370;-6.588;2022-08-19T05:31:37;100543.03;;;7.34;100.00
38289;BME280;24092;53.370;-6.588;2022-08-19T05:34:05;100541.25;;;7.33;100.00
38289;BME280;24092;53.370;-6.588;2022-08-19T05:36:35;100544.64;;;7.26;100.00
38289;BME280;24092;53.370;-6.588;2022-08-19T05:39:04;100547.36;;;7.14;100.00
38289;BME280;24092;53.370;-6.588;2022-08-19T05:41:31;100547.13;;;7.63;100.00
38289;BME280;24092;53.370;-6.588;2022-08-19T05:44:02;100546.79;;;7.19;100.00
38289;BME280;24092;53.370;-6.588;2022-08-19T05:46:30;100549.97;;;7.42;100.00
38289;BME280;24092;53.370;-6.588;2022-08-19T05:48:57;100557.36;;;7.83;100.00
38289;BME280;24092;53.370;-6.588;2022-08-19T05:51:25;100558.98;;;7.66;100.00
38289;BME280;24092;53.370;-6.588;2022-08-19T05:53:52;100559.80;;;7.37;100.00
38289;BME280;24092;53.370;-6.588;2022-08-19T05:56:19;100565.84;;;7.63;100.00
38289;BME280;24092;53.370;-6.588;2022-08-19T05:58:46;100569.17;;;7.59;100.00
38289;BME280;24092;53.370;-6.588;2022-08-19T06:01:17;100569.23;;;7.95;100.00
38289;BME280;24092;53.370;-6.588;2022-08-19T06:03:45;100570.96;;;7.95;100.00
38289;BME280;24092;53.370;-6.588;2022-08-19T06:06:15;100578.56;;;7.71;100.00
38289;BME280;24092;53.370;-6.588;2022-08-19T06:08:43;100585.33;;;7.51;100.00
38289;BME280;24092;53.370;-6.588;2022-08-19T06:11:16;100584.17;;;7.34;100.00
38289;BME280;24092;53.370;-6.588;2022-08-19T06:13:43;100588.45;;;7.29;100.00
38289;BME280;24092;53.370;-6.588;2022-08-19T06:16:11;100595.82;;;7.55;100.00
38289;BME280;24092;53.370;-6.588;2022-08-19T06:18:38;100599.05;;;7.54;100.00
38289;BME280;24092;53.370;-6.588;2022-08-19T06:21:05;100599.79;;;7.58;100.00
38289;BME280;24092;53.370;-6.588;2022-08-19T06:23:31;100600.12;;;8.10;100.00
38289;BME280;24092;53.370;-6.588;2022-08-19T06:25:58;100601.01;;;8.47;100.00
38289;BME280;24092;53.370;-6.588;2022-08-19T06:28:25;100596.97;;;8.14;100.00
38289;BME280;24092;53.370;-6.588;2022-08-19T06:30:52;100599.78;;;8.18;100.00
38289;BME280;24092;53.370;-6.588;2022-08-19T06:33:19;100598.64;;;8.50;100.00
38289;BME280;24092;53.370;-6.588;2022-08-19T06:35:46;100601.12;;;8.16;100.00
38289;BME280;24092;53.370;-6.588;2022-08-19T06:38:13;100598.49;;;8.55;100.00
38289;BME280;24092;53.370;-6.588;2022-08-19T06:40:40;100601.16;;;8.56;100.00
38289;BME280;24092;53.370;-6.588;2022-08-19T06:43:07;100596.18;;;9.00;100.00
38289;BME280;24092;53.370;-6.588;2022-08-19T06:45:36;100602.71;;;8.44;100.00
38289;BME280;24092;53.370;-6.588;2022-08-19T06:48:03;100602.73;;;9.13;100.00
38289;BME280;24092;53.370;-6.588;2022-08-19T06:50:31;100605.45;;;9.09;100.00
38289;BME280;24092;53.370;-6.588;2022-08-19T06:52:58;100611.19;;;9.21;100.00
38289;BME280;24092;53.370;-6.588;2022-08-19T06:55:25;100616.70;;;8.87;100.00
38289;BME280;24092;53.370;-6.588;2022-08-19T06:57:52;100625.70;;;8.63;100.00
38289;BME280;24092;53.370;-6.588;2022-08-19T07:00:18;100623.91;;;8.66;100.00
38289;BME280;24092;53.370;-6.588;2022-08-19T07:02:45;100620.47;;;8.39;100.00
38289;BME280;24092;53.370;-6.588;2022-08-19T07:05:12;100612.76;;;8.08;100.00
38289;BME280;24092;53.370;-6.588;2022-08-19T07:07:39;100616.60;;;8.18;100.00
38289;BME280;24092;53.370;-6.588;2022-08-19T07:10:07;100613.71;;;8.17;100.00
38289;BME280;24092;53.370;-6.588;2022-08-19T07:12:34;100615.14;;;7.81;100.00
38289;BME280;24092;53.370;-6.588;2022-08-19T07:15:02;100617.81;;;8.16;100.00
38289;BME280;24092;53.370;-6.588;2022-08-19T07:17:29;100613.83;;;8.14;100.00
38289;BME280;24092;53.370;-6.588;2022-08-19T07:19:56;100613.25;;;8.33;100.00
38289;BME280;24092;53.370;-6.588;2022-08-19T07:22:23;100611.61;;;8.38;100.00
38289;BME280;24092;53.370;-6.588;2022-08-19T07:24:51;100610.37;;;7.79;100.00
38289;BME280;24092;53.370;-6.588;2022-08-19T07:27:19;100611.16;;;8.05;100.00
38289;BME280;24092;53.370;-6.588;2022-08-19T07:29:46;100613.09;;;7.79;100.00
38289;BME280;24092;53.370;-6.588;2022-08-19T07:32:13;100614.38;;;8.27;100.00
38289;BME280;24092;53.370;-6.588;2022-08-19T07:34:40;100614.20;;;8.19;100.00
38289;BME280;24092;53.370;-6.588;2022-08-19T07:37:07;100622.73;;;8.79;100.00
38289;BME280;24092;53.370;-6.588;2022-08-19T07:39:35;100627.39;;;9.06;100.00
38289;BME280;24092;53.370;-6.588;2022-08-19T07:42:07;100635.24;;;9.05;100.00
38289;BME280;24092;53.370;-6.588;2022-08-19T07:44:35;100635.15;;;8.78;100.00
38289;BME280;24092;53.370;-6.588;2022-08-19T07:47:03;100642.61;;;8.87;100.00
38289;BME280;24092;53.370;-6.588;2022-08-19T07:49:31;100650.64;;;9.24;100.00
38289;BME280;24092;53.370;-6.588;2022-08-19T07:52:00;100649.32;;;8.76;100.00
38289;BME280;24092;53.370;-6.588;2022-08-19T07:54:31;100652.10;;;8.95;100.00
38289;BME280;24092;53.370;-6.588;2022-08-19T07:56:59;100649.81;;;9.70;100.00
38289;BME280;24092;53.370;-6.588;2022-08-19T07:59:28;100648.62;;;9.61;100.00
38289;BME280;24092;53.370;-6.588;2022-08-19T08:01:55;100646.05;;;9.54;100.00
38289;BME280;24092;53.370;-6.588;2022-08-19T08:04:24;100642.81;;;9.52;100.00
38289;BME280;24092;53.370;-6.588;2022-08-19T08:06:51;100648.90;;;9.74;100.00
38289;BME280;24092;53.370;-6.588;2022-08-19T08:09:21;100645.68;;;9.29;100.00
38289;BME280;24092;53.370;-6.588;2022-08-19T08:11:51;100646.71;;;9.49;100.00
38289;BME280;24092;53.370;-6.588;2022-08-19T08:14:22;100644.41;;;9.42;100.00
38289;BME280;24092;53.370;-6.588;2022-08-19T08:16:50;100644.77;;;9.89;100.00
38289;BME280;24092;53.370;-6.588;2022-08-19T08:19:18;100648.30;;;9.73;100.00
38289;BME280;24092;53.370;-6.588;2022-08-19T08:21:47;100650.02;;;9.31;100.00
38289;BME280;24092;53.370;-6.588;2022-08-19T08:24:15;100654.23;;;9.32;100.00
38289;BME280;24092;53.370;-6.588;2022-08-19T08:26:43;100655.61;;;9.13;100.00
38289;BME280;24092;53.370;-6.588;2022-08-19T08:29:11;100654.54;;;8.89;100.00
38289;BME280;24092;53.370;-6.588;2022-08-19T08:31:40;100645.24;;;9.99;100.00
38289;BME280;24092;53.370;-6.588;2022-08-19T08:34:08;100647.61;;;9.24;100.00
38289;BME280;24092;53.370;-6.588;2022-08-19T08:36:37;100653.59;;;9.45;100.00
38289;BME280;24092;53.370;-6.588;2022-08-19T08:39:05;100655.21;;;9.50;100.00
38289;BME280;24092;53.370;-6.588;2022-08-19T08:41:39;100662.20;;;9.17;100.00
38289;BME280;24092;53.370;-6.588;2022-08-19T08:44:15;100655.91;;;9.41;100.00
38289;BME280;24092;53.370;-6.588;2022-08-19T08:46:46;100658.84;;;9.11;100.00
38289;BME280;24092;53.370;-6.588;2022-08-19T08:49:24;100652.06;;;9.56;100.00
38289;BME280;24092;53.370;-6.588;2022-08-19T08:52:00;100652.13;;;8.92;100.00
38289;BME280;24092;53.370;-6.588;2022-08-19T08:54:33;100660.33;;;9.31;100.00
38289;BME280;24092;53.370;-6.588;2022-08-19T08:57:04;100663.42;;;9.55;100.00
38289;BME280;24092;53.370;-6.588;2022-08-19T08:59:35;100659.41;;;9.79;100.00
38289;BME280;24092;53.370;-6.588;2022-08-19T09:02:04;100657.81;;;10.03;100.00
38289;BME280;24092;53.370;-6.588;2022-08-19T09:04:31;100661.20;;;9.86;100.00
38289;BME280;24092;53.370;-6.588;2022-08-19T09:07:11;100658.96;;;10.33;100.00
38289;BME280;24092;53.370;-6.588;2022-08-19T09:09:44;100658.29;;;9.62;100.00
38289;BME280;24092;53.370;-6.588;2022-08-19T09:12:18;100658.76;;;9.67;100.00
38289;BME280;24092;53.370;-6.588;2022-08-19T09:14:52;100660.92;;;9.61;100.00
38289;BME280;24092;53.370;-6.588;2022-08-19T09:17:23;100655.16;;;10.15;100.00
38289;BME280;24092;53.370;-6.588;2022-08-19T09:19:53;100652.81;;;10.15;100.00
38289;BME280;24092;53.370;-6.588;2022-08-19T09:22:21;100648.04;;;10.46;100.00
38289;BME280;24092;53.370;-6.588;2022-08-19T09:24:49;100651.77;;;10.42;100.00
38289;BME280;24092;53.370;-6.588;2022-08-19T09:27:16;100650.78;;;10.32;100.00
38289;BME280;24092;53.370;-6.588;2022-08-19T09:29:43;100655.92;;;10.36;100.00
38289;BME280;24092;53.370;-6.588;2022-08-19T09:32:09;100654.67;;;10.68;100.00
38289;BME280;24092;53.370;-6.588;2022-08-19T09:34:37;100655.26;;;10.62;100.00
38289;BME280;24092;53.370;-6.588;2022-08-19T09:37:04;100656.28;;;11.00;100.00
38289;BME280;24092;53.370;-6.588;2022-08-19T09:39:31;100654.87;;;10.77;100.00
38289;BME280;24092;53.370;-6.588;2022-08-19T09:41:58;100651.85;;;11.16;100.00
38289;BME280;24092;53.370;-6.588;2022-08-19T09:44:25;100652.35;;;10.83;100.00
38289;BME280;24092;53.370;-6.588;2022-08-19T09:46:53;100653.22;;;10.62;100.00
38289;BME280;24092;53.370;-6.588;2022-08-19T09:49:20;100648.52;;;10.56;100.00
38289;BME280;24092;53.370;-6.588;2022-08-19T09:51:50;100652.09;;;10.34;100.00
38289;BME280;24092;53.370;-6.588;2022-08-19T09:54:18;100658.18;;;9.72;100.00
38289;BME280;24092;53.370;-6.588;2022-08-19T09:56:45;100653.04;;;9.73;100.00
38289;BME280;24092;53.370;-6.588;2022-08-19T09:59:12;100651.15;;;10.17;100.00
38289;BME280;24092;53.370;-6.588;2022-08-19T10:01:39;100654.94;;;10.40;100.00
38289;BME280;24092;53.370;-6.588;2022-08-19T10:04:06;100661.67;;;10.24;100.00
38289;BME280;24092;53.370;-6.588;2022-08-19T10:06:32;100662.36;;;10.18;100.00
38289;BME280;24092;53.370;-6.588;2022-08-19T10:09:00;100678.39;;;9.24;100.00
38289;BME280;24092;53.370;-6.588;2022-08-19T10:11:28;100673.48;;;9.56;100.00
38289;BME280;24092;53.370;-6.588;2022-08-19T10:13:54;100666.27;;;9.88;100.00
38289;BME280;24092;53.370;-6.588;2022-08-19T10:16:23;100668.44;;;9.84;100.00
38289;BME280;24092;53.370;-6.588;2022-08-19T10:18:51;100643.92;;;10.01;100.00
38289;BME280;24092;53.370;-6.588;2022-08-19T10:21:21;100649.73;;;10.54;100.00
38289;BME280;24092;53.370;-6.588;2022-08-19T10:23:51;100645.13;;;10.10;100.00
38289;BME280;24092;53.370;-6.588;2022-08-19T10:26:20;100645.53;;;10.01;100.00
38289;BME280;24092;53.370;-6.588;2022-08-19T10:28:48;100644.54;;;10.49;100.00
38289;BME280;24092;53.370;-6.588;2022-08-19T10:31:18;100644.07;;;10.44;100.00
38289;BME280;24092;53.370;-6.588;2022-08-19T10:33:46;100648.73;;;10.28;100.00
38289;BME280;24092;53.370;-6.588;2022-08-19T10:36:15;100644.59;;;10.02;100.00
38289;BME280;24092;53.370;-6.588;2022-08-19T10:38:43;100650.21;;;10.07;100.00
38289;BME280;24092;53.370;-6.588;2022-08-19T10:41:12;100647.82;;;10.40;100.00
38289;BME280;24092;53.370;-6.588;2022-08-19T10:43:39;100647.51;;;10.49;100.00
38289;BME280;24092;53.370;-6.588;2022-08-19T10:46:08;100649.26;;;10.67;100.00
38289;BME280;24092;53.370;-6.588;2022-08-19T10:48:36;100644.34;;;10.62;100.00
38289;BME280;24092;53.370;-6.588;2022-08-19T10:51:04;100647.87;;;10.76;100.00
38289;BME280;24092;53.370;-6.588;2022-08-19T10:53:31;100646.33;;;10.12;100.00
38289;BME280;24092;53.370;-6.588;2022-08-19T10:55:58;100646.88;;;10.96;100.00
38289;BME280;24092;53.370;-6.588;2022-08-19T10:58:25;100641.75;;;11.09;100.00
38289;BME280;24092;53.370;-6.588;2022-08-19T11:00:55;100643.28;;;11.33;100.00
38289;BME280;24092;53.370;-6.588;2022-08-19T11:03:24;100640.18;;;11.33;100.00
38289;BME280;24092;53.370;-6.588;2022-08-19T11:05:58;100640.18;;;11.45;100.00
38289;BME280;24092;53.370;-6.588;2022-08-19T11:08:26;100634.99;;;11.54;100.00
38289;BME280;24092;53.370;-6.588;2022-08-19T11:10:54;100637.09;;;11.81;100.00
38289;BME280;24092;53.370;-6.588;2022-08-19T11:13:22;100640.47;;;11.32;100.00
38289;BME280;24092;53.370;-6.588;2022-08-19T11:15:56;100642.80;;;11.46;100.00
38289;BME280;24092;53.370;-6.588;2022-08-19T11:18:24;100637.88;;;11.57;100.00
38289;BME280;24092;53.370;-6.588;2022-08-19T11:20:51;100641.16;;;11.17;100.00
38289;BME280;24092;53.370;-6.588;2022-08-19T11:23:17;100640.39;;;11.33;100.00
38289;BME280;24092;53.370;-6.588;2022-08-19T11:25:44;100644.32;;;11.63;100.00
38289;BME280;24092;53.370;-6.588;2022-08-19T11:28:11;100642.47;;;12.25;100.00
38289;BME280;24092;53.370;-6.588;2022-08-19T11:30:39;100638.82;;;12.22;100.00
38289;BME280;24092;53.370;-6.588;2022-08-19T11:33:06;100638.37;;;11.66;100.00
38289;BME280;24092;53.370;-6.588;2022-08-19T11:35:33;100640.02;;;12.33;100.00
38289;BME280;24092;53.370;-6.588;2022-08-19T11:38:02;100642.82;;;11.15;100.00
38289;BME280;24092;53.370;-6.588;2022-08-19T11:40:29;100640.29;;;11.85;100.00
38289;BME280;24092;53.370;-6.588;2022-08-19T11:42:56;100634.45;;;12.17;100.00
38289;BME280;24092;53.370;-6.588;2022-08-19T11:45:23;100635.71;;;12.05;100.00
38289;BME280;24092;53.370;-6.588;2022-08-19T11:47:51;100628.49;;;12.50;100.00
38289;BME280;24092;53.370;-6.588;2022-08-19T11:50:18;100617.97;;;12.20;100.00
38289;BME280;24092;53.370;-6.588;2022-08-19T11:52:46;100620.64;;;12.45;100.00
38289;BME280;24092;53.370;-6.588;2022-08-19T11:55:13;100624.46;;;12.21;100.00
38289;BME280;24092;53.370;-6.588;2022-08-19T11:57:41;100622.98;;;12.50;100.00
38289;BME280;24092;53.370;-6.588;2022-08-19T12:00:10;100612.77;;;12.31;100.00
38289;BME280;24092;53.370;-6.588;2022-08-19T12:02:38;100611.25;;;12.61;100.00
38289;BME280;24092;53.370;-6.588;2022-08-19T12:05:06;100614.24;;;12.15;100.00
38289;BME280;24092;53.370;-6.588;2022-08-19T12:07:34;100616.27;;;12.54;100.00
38289;BME280;24092;53.370;-6.588;2022-08-19T12:10:02;100613.72;;;12.23;100.00
38289;BME280;24092;53.370;-6.588;2022-08-19T12:12:29;100619.57;;;12.54;100.00
38289;BME280;24092;53.370;-6.588;2022-08-19T12:14:57;100627.60;;;12.99;100.00
38289;BME280;24092;53.370;-6.588;2022-08-19T12:17:26;100627.21;;;12.75;100.00
38289;BME280;24092;53.370;-6.588;2022-08-19T12:19:53;100626.24;;;12.63;100.00
38289;BME280;24092;53.370;-6.588;2022-08-19T12:22:21;100629.48;;;12.96;100.00
38289;BME280;24092;53.370;-6.588;2022-08-19T12:24:48;100634.18;;;13.60;100.00
38289;BME280;24092;53.370;-6.588;2022-08-19T12:27:16;100631.74;;;13.07;100.00
38289;BME280;24092;53.370;-6.588;2022-08-19T12:29:43;100623.47;;;13.05;100.00
38289;BME280;24092;53.370;-6.588;2022-08-19T12:32:10;100623.86;;;13.06;100.00
38289;BME280;24092;53.370;-6.588;2022-08-19T12:34:38;100630.21;;;13.50;100.00
38289;BME280;24092;53.370;-6.588;2022-08-19T12:37:06;100627.84;;;13.16;100.00
38289;BME280;24092;53.370;-6.588;2022-08-19T12:39:36;100629.38;;;12.59;100.00
38289;BME280;24092;53.370;-6.588;2022-08-19T12:43:55;100633.57;;;12.50;100.00